Time;durP1;ratioP1;P1;durP2;ratioP2;P2;SDS_P1;SDS_P2;PMS_P1;PMS_P2;Temp;Humidity;BMP_temperature;BMP_pressure;BME280_temperature;BME280_humidity;BME280_pressure;Samples;Min_cycle;Max_cycle;Signal;HPM_P1;HPM_P2
2024/02/04 00:01:58;;;;;;;;;;;;;;;9.59;58.14;101588.66;5095787;28;19920;-77
2024/02/04 00:04:50;;;;;;;;;;;;;;;9.56;58.36;101590.00;5101289;28;19912;-77
2024/02/04 00:07:42;;;;;;;;;;;;;;;9.57;58.19;101583.50;5095871;28;19912;-78
2024/02/04 00:10:34;;;;;;;;;;;;;;;9.63;58.36;101578.81;5095634;28;19916;-77
2024/02/04 00:13:26;;;;;;;;;;;;;;;9.69;57.69;101589.34;5099510;28;19916;-77
2024/02/04 00:16:18;;;;;;;;;;;;;;;9.42;57.58;101594.50;5097033;28;19920;-78
2024/02/04 00:19:09;;;;;;;;;;;;;;;9.24;59.08;101590.59;5095253;28;19911;-77
2024/02/04 00:22:00;;;;;;;;;;;;;;;9.12;58.76;101573.88;5094660;28;19931;-77
2024/02/04 00:24:50;;;;;;;;;;;;;;;9.19;58.13;101568.13;5096150;28;19912;-78
2024/02/04 00:27:42;;;;;;;;;;;;;;;9.07;58.47;101567.66;5098099;28;19912;-77
2024/02/04 00:30:33;;;;;;;;;;;;;;;9.04;59.24;101571.75;5096166;28;19916;-78
2024/02/04 00:33:25;;;;;;;;;;;;;;;9.06;59.65;101580.41;5094828;28;20292;-79
2024/02/04 00:36:17;;;;;;;;;;;;;;;8.99;59.88;101575.31;5094093;28;19915;-79
2024/02/04 00:39:07;;;;;;;;;;;;;;;8.96;59.61;101570.47;5096663;28;19912;-77
2024/02/04 00:41:59;;;;;;;;;;;;;;;9.13;59.40;101578.22;5079706;28;19927;-78
2024/02/04 00:44:51;;;;;;;;;;;;;;;9.07;60.06;101592.91;5093860;28;19912;-78
2024/02/04 00:47:43;;;;;;;;;;;;;;;8.96;60.14;101575.88;5094813;28;19912;-78
2024/02/04 00:50:32;;;;;;;;;;;;;;;8.97;60.06;101569.38;5083906;28;20392;-78
2024/02/04 00:53:22;;;;;;;;;;;;;;;9.07;59.33;101570.38;5096685;28;19916;-77
2024/02/04 00:56:11;;;;;;;;;;;;;;;9.07;59.43;101568.47;5084565;28;19916;-78
2024/02/04 00:59:03;;;;;;;;;;;;;;;9.25;58.55;101553.38;5093370;28;19912;-78
2024/02/04 01:01:55;;;;;;;;;;;;;;;9.30;58.70;101543.28;5081267;28;19915;-81
2024/02/04 01:04:42;;;;;;;;;;;;;;;9.36;58.19;101558.44;5093273;28;19916;-79
2024/02/04 01:07:29;;;;;;;;;;;;;;;9.18;59.12;101564.59;5081925;28;20396;-76
2024/02/04 01:10:21;;;;;;;;;;;;;;;9.21;59.96;101584.91;5095514;28;19912;-79
2024/02/04 01:13:13;;;;;;;;;;;;;;;9.04;60.11;101588.03;5093236;28;19912;-79
2024/02/04 01:16:02;;;;;;;;;;;;;;;8.97;60.50;101582.94;5081786;28;19915;-78
2024/02/04 01:18:54;;;;;;;;;;;;;;;8.84;60.69;101580.03;5092899;28;19916;-78
2024/02/04 01:21:44;;;;;;;;;;;;;;;8.85;60.90;101573.53;5094278;28;19912;-78
2024/02/04 01:24:36;;;;;;;;;;;;;;;8.88;60.60;101584.66;5103172;28;19912;-80
2024/02/04 01:27:21;;;;;;;;;;;;;;;8.86;60.81;101581.41;5102647;28;19942;-79
2024/02/04 01:30:12;;;;;;;;;;;;;;;8.91;60.87;101588.69;5106193;28;19912;-79
2024/02/04 01:33:02;;;;;;;;;;;;;;;8.84;60.80;101599.03;5097312;28;19912;-78
2024/02/04 01:35:55;;;;;;;;;;;;;;;8.91;61.13;101596.81;5093861;28;19920;-77
2024/02/04 01:38:47;;;;;;;;;;;;;;;8.76;61.06;101586.88;5093625;28;20385;-77
2024/02/04 01:41:37;;;;;;;;;;;;;;;8.69;61.37;101594.50;5098074;28;19916;-78
2024/02/04 01:44:29;;;;;;;;;;;;;;;8.73;60.65;101584.75;5092820;28;19912;-78
2024/02/04 01:47:21;;;;;;;;;;;;;;;8.74;60.53;101572.78;5080604;28;19916;-76
2024/02/04 01:50:13;;;;;;;;;;;;;;;8.92;60.13;101571.31;5093181;28;19911;-77
2024/02/04 01:53:02;;;;;;;;;;;;;;;9.04;59.42;101574.47;5092352;28;19912;-78
2024/02/04 01:55:54;;;;;;;;;;;;;;;9.08;61.11;101580.16;5092315;28;19916;-77
2024/02/04 01:58:48;;;;;;;;;;;;;;;9.02;60.44;101574.75;5092370;28;19915;-78
2024/02/04 02:01:40;;;;;;;;;;;;;;;9.05;58.98;101565.22;5092828;28;19912;-77
2024/02/04 02:04:29;;;;;;;;;;;;;;;9.03;59.25;101572.88;5093978;28;19912;-78
2024/02/04 02:07:19;;;;;;;;;;;;;;;8.95;60.47;101570.75;5091665;28;19915;-78
2024/02/04 02:10:12;;;;;;;;;;;;;;;8.68;61.56;101563.09;5095822;28;20300;-77
2024/02/04 02:13:18;;;;;;;;;;;;;;;8.55;61.24;101567.22;5093419;28;19912;-77
2024/02/04 02:16:15;;;;;;;;;;;;;;;8.34;61.79;101568.44;5096637;28;19939;-78
2024/02/04 02:19:17;;;;;;;;;;;;;;;8.16;61.52;101567.16;5094559;28;19916;-77
2024/02/04 02:22:14;;;;;;;;;;;;;;;8.01;61.81;101563.69;5077333;28;20285;-77
2024/02/04 02:25:06;;;;;;;;;;;;;;;8.11;61.21;101566.34;5080669;28;19912;-77
2024/02/04 02:27:53;;;;;;;;;;;;;;;8.27;61.65;101580.66;5093282;28;19916;-77
2024/02/04 02:30:45;;;;;;;;;;;;;;;8.28;61.46;101564.09;5081848;28;19912;-79
2024/02/04 02:33:33;;;;;;;;;;;;;;;8.34;60.94;101579.25;5093275;28;19915;-77
2024/02/04 02:36:26;;;;;;;;;;;;;;;8.36;60.27;101566.25;5092526;28;19912;-78
2024/02/04 02:39:23;;;;;;;;;;;;;;;8.47;60.30;101575.97;5095927;28;19916;-76
2024/02/04 02:42:15;;;;;;;;;;;;;;;8.42;59.58;101569.75;5091895;28;19912;-78
2024/02/04 02:45:06;;;;;;;;;;;;;;;8.64;60.34;101567.44;5082524;28;20316;-78
2024/02/04 02:47:59;;;;;;;;;;;;;;;8.65;59.48;101568.25;5091762;28;19915;-78
2024/02/04 02:50:52;;;;;;;;;;;;;;;8.42;60.31;101570.56;5078077;28;19912;-78
2024/02/04 02:53:44;;;;;;;;;;;;;;;8.46;60.32;101568.91;5096240;28;19912;-76
2024/02/04 02:56:33;;;;;;;;;;;;;;;8.35;60.33;101569.25;5095494;28;19912;-78
2024/02/04 02:59:26;;;;;;;;;;;;;;;8.36;60.88;101568.16;5095497;28;19912;-78
2024/02/04 03:02:16;;;;;;;;;;;;;;;8.44;60.40;101557.53;5098800;28;19920;-77
2024/02/04 03:05:08;;;;;;;;;;;;;;;8.40;61.18;101556.47;5095823;28;19916;-78
2024/02/04 03:08:00;;;;;;;;;;;;;;;8.44;59.85;101549.41;5083169;28;20312;-76
2024/02/04 03:10:52;;;;;;;;;;;;;;;8.42;60.67;101540.75;5095369;28;19920;-78
2024/02/04 03:13:44;;;;;;;;;;;;;;;8.58;60.16;101531.41;5096827;28;19912;-78
2024/02/04 03:16:36;;;;;;;;;;;;;;;8.53;60.45;101536.09;5098635;28;19912;-79
2024/02/04 03:19:29;;;;;;;;;;;;;;;8.56;60.71;101532.81;5082919;28;19920;-77
2024/02/04 03:22:21;;;;;;;;;;;;;;;8.49;61.37;101527.69;5095009;28;19911;-78
2024/02/04 03:25:08;;;;;;;;;;;;;;;8.47;62.28;101529.06;5084364;28;19911;-79
2024/02/04 03:28:00;;;;;;;;;;;;;;;8.36;61.93;101531.03;5081815;28;20376;-78
2024/02/04 03:30:50;;;;;;;;;;;;;;;8.25;61.13;101528.63;5094196;28;19916;-77
2024/02/04 03:33:42;;;;;;;;;;;;;;;8.13;61.65;101518.09;5097604;28;19912;-78
2024/02/04 03:36:34;;;;;;;;;;;;;;;8.15;62.82;101513.22;5094581;28;20396;-77
2024/02/04 03:39:26;;;;;;;;;;;;;;;8.00;61.31;101519.53;5095272;28;19915;-78
2024/02/04 03:42:18;;;;;;;;;;;;;;;7.65;60.74;101525.09;5096705;28;19919;-79
2024/02/04 03:45:18;;;;;;;;;;;;;;;7.39;63.04;101502.72;5094408;28;20388;-80
2024/02/04 03:48:10;;;;;;;;;;;;;;;7.38;62.91;101505.69;5081916;28;19916;-78
2024/02/04 03:51:02;;;;;;;;;;;;;;;7.36;64.85;101508.69;5094406;28;19912;-76
2024/02/04 03:53:54;;;;;;;;;;;;;;;7.53;63.17;101511.03;5084543;28;19915;-80
2024/02/04 03:56:46;;;;;;;;;;;;;;;7.50;62.08;101504.31;5097638;28;19920;-78
2024/02/04 03:59:38;;;;;;;;;;;;;;;7.66;64.38;101502.38;5094948;28;19942;-78
2024/02/04 04:02:30;;;;;;;;;;;;;;;7.72;62.41;101512.88;5099413;28;19927;-77
2024/02/04 04:05:22;;;;;;;;;;;;;;;7.44;61.54;101516.22;5096021;28;19920;-78
2024/02/04 04:08:13;;;;;;;;;;;;;;;7.42;61.05;101495.91;5094819;28;19912;-78
2024/02/04 04:11:03;;;;;;;;;;;;;;;7.39;61.66;101502.72;5094233;28;19912;-76
2024/02/04 04:13:52;;;;;;;;;;;;;;;7.19;63.46;101517.09;5096897;28;19916;-77
2024/02/04 04:16:44;;;;;;;;;;;;;;;7.25;62.43;101531.41;5099707;28;19985;-78
2024/02/04 04:19:37;;;;;;;;;;;;;;;7.20;60.65;101539.53;5097643;28;20527;-78
2024/02/04 04:22:29;;;;;;;;;;;;;;;7.27;62.23;101532.75;5096040;28;20559;-77
2024/02/04 04:25:18;;;;;;;;;;;;;;;7.42;61.96;101512.16;5099691;28;19912;-77
2024/02/04 04:28:10;;;;;;;;;;;;;;;7.35;62.13;101508.94;5097077;28;19916;-78
2024/02/04 04:31:02;;;;;;;;;;;;;;;7.38;62.04;101494.84;5094966;28;19912;-78
2024/02/04 04:33:52;;;;;;;;;;;;;;;7.46;61.06;101513.25;5098493;28;19912;-76
2024/02/04 04:36:41;;;;;;;;;;;;;;;7.35;62.30;101528.69;5095779;28;19912;-78
2024/02/04 04:39:31;;;;;;;;;;;;;;;7.28;62.27;101528.97;5100675;28;20296;-77
2024/02/04 04:42:23;;;;;;;;;;;;;;;7.17;62.49;101511.13;5098184;28;19911;-78
2024/02/04 04:45:14;;;;;;;;;;;;;;;7.32;62.31;101518.41;5096096;28;20288;-78
2024/02/04 04:48:06;;;;;;;;;;;;;;;7.36;61.60;101516.78;5097971;28;19916;-78
2024/02/04 04:50:59;;;;;;;;;;;;;;;7.27;61.18;101510.28;5096788;28;19915;-78
2024/02/04 04:53:48;;;;;;;;;;;;;;;7.23;61.94;101496.53;5094402;28;19916;-77
2024/02/04 04:56:43;;;;;;;;;;;;;;;7.25;62.49;101518.72;5098683;28;19916;-78
2024/02/04 04:59:35;;;;;;;;;;;;;;;7.14;62.05;101527.09;5096942;28;19916;-78
2024/02/04 05:02:27;;;;;;;;;;;;;;;7.20;61.68;101520.59;5093854;28;19912;-78
2024/02/04 05:05:19;;;;;;;;;;;;;;;7.27;62.12;101523.81;5097302;28;19916;-78
2024/02/04 05:08:11;;;;;;;;;;;;;;;7.17;61.64;101526.53;5095323;28;20312;-77
2024/02/04 05:11:01;;;;;;;;;;;;;;;7.09;63.40;101522.50;5099276;28;19916;-79
2024/02/04 05:13:53;;;;;;;;;;;;;;;7.03;62.47;101520.88;5096442;28;19911;-76
2024/02/04 05:16:45;;;;;;;;;;;;;;;7.08;62.92;101523.59;5093920;28;19912;-77
2024/02/04 05:19:34;;;;;;;;;;;;;;;7.04;63.51;101533.34;5098657;28;19982;-76
2024/02/04 05:22:26;;;;;;;;;;;;;;;7.12;62.65;101523.84;5096191;28;19916;-80
2024/02/04 05:25:18;;;;;;;;;;;;;;;6.91;63.84;101522.25;5094149;28;19912;-78
2024/02/04 05:28:10;;;;;;;;;;;;;;;6.96;63.40;101541.97;5095781;28;20332;-76
2024/02/04 05:31:07;;;;;;;;;;;;;;;6.89;63.66;101541.44;5094884;28;19920;-78
2024/02/04 05:33:59;;;;;;;;;;;;;;;6.72;63.88;101547.09;5098314;28;19915;-78
2024/02/04 05:36:51;;;;;;;;;;;;;;;6.68;65.12;101547.91;5095652;28;19912;-78
2024/02/04 05:39:42;;;;;;;;;;;;;;;6.78;64.59;101535.22;5093690;28;19916;-78
2024/02/04 05:42:34;;;;;;;;;;;;;;;6.67;64.54;101539.00;5097782;28;19912;-79
2024/02/04 05:45:24;;;;;;;;;;;;;;;6.64;64.55;101552.22;5095257;28;19912;-79
2024/02/04 05:48:13;;;;;;;;;;;;;;;6.66;64.68;101550.06;5093249;28;19912;-78
2024/02/04 05:51:02;;;;;;;;;;;;;;;6.68;64.78;101554.13;5099261;28;20397;-76
2024/02/04 05:53:54;;;;;;;;;;;;;;;6.74;63.78;101560.34;5094862;28;19912;-78
2024/02/04 05:56:44;;;;;;;;;;;;;;;7.01;63.34;101562.81;5097689;28;19916;-77
2024/02/04 05:59:34;;;;;;;;;;;;;;;6.86;63.80;101572.50;5096299;28;19912;-78
2024/02/04 06:02:26;;;;;;;;;;;;;;;6.86;63.81;101574.41;5094219;28;19912;-78
2024/02/04 06:05:18;;;;;;;;;;;;;;;6.82;63.50;101590.34;5097292;28;19916;-78
2024/02/04 06:08:07;;;;;;;;;;;;;;;6.81;62.80;101591.44;5096269;28;19911;-78
2024/02/04 06:10:57;;;;;;;;;;;;;;;6.83;63.59;101592.00;5095889;28;19912;-78
2024/02/04 06:13:49;;;;;;;;;;;;;;;6.94;63.78;101592.00;5097650;28;19915;-77
2024/02/04 06:16:40;;;;;;;;;;;;;;;7.01;63.19;101579.03;5096227;28;19916;-77
2024/02/04 06:19:32;;;;;;;;;;;;;;;7.00;63.44;101589.03;5094450;28;19916;-78
2024/02/04 06:22:24;;;;;;;;;;;;;;;6.92;61.83;101596.84;5097191;28;20361;-76
2024/02/04 06:25:16;;;;;;;;;;;;;;;6.68;62.05;101589.25;5094263;28;19912;-77
2024/02/04 06:28:08;;;;;;;;;;;;;;;6.55;63.50;101600.59;5095490;28;19916;-78
2024/02/04 06:31:00;;;;;;;;;;;;;;;6.44;63.49;101602.47;5095406;28;19912;-78
2024/02/04 06:33:52;;;;;;;;;;;;;;;6.34;64.88;101621.34;5093679;28;19912;-77
2024/02/04 06:36:44;;;;;;;;;;;;;;;6.31;65.12;101623.72;5096623;28;19920;-79
2024/02/04 06:39:36;;;;;;;;;;;;;;;6.37;64.92;101612.69;5094988;28;20381;-78
2024/02/04 06:42:25;;;;;;;;;;;;;;;6.41;65.75;101626.47;5092643;28;19916;-77
2024/02/04 06:45:17;;;;;;;;;;;;;;;6.39;65.64;101634.84;5095901;28;19916;-76
2024/02/04 06:48:09;;;;;;;;;;;;;;;6.36;66.18;101640.78;5095122;28;19919;-77
2024/02/04 06:51:01;;;;;;;;;;;;;;;6.38;65.31;101643.22;5097419;28;19912;-78
2024/02/04 06:53:50;;;;;;;;;;;;;;;6.45;65.46;101644.59;5095869;28;19912;-76
2024/02/04 06:56:42;;;;;;;;;;;;;;;6.39;65.26;101651.06;5093290;28;20373;-78
2024/02/04 06:59:34;;;;;;;;;;;;;;;6.58;66.55;101654.09;5097111;28;19919;-76
2024/02/04 07:02:26;;;;;;;;;;;;;;;6.69;65.45;101650.34;5094493;28;19912;-78
2024/02/04 07:05:18;;;;;;;;;;;;;;;6.73;64.30;101656.03;5091940;28;19912;-76
2024/02/04 07:08:07;;;;;;;;;;;;;;;6.65;64.11;101660.06;5094689;28;19920;-77
2024/02/04 07:10:59;;;;;;;;;;;;;;;6.66;64.62;101667.06;5095104;28;19920;-77
2024/02/04 07:13:51;;;;;;;;;;;;;;;6.74;64.47;101665.75;5098917;28;19912;-76
2024/02/04 07:16:43;;;;;;;;;;;;;;;6.81;64.11;101675.22;5095340;28;19916;-78
2024/02/04 07:19:35;;;;;;;;;;;;;;;6.75;63.49;101675.50;5093758;28;19915;-77
2024/02/04 07:22:27;;;;;;;;;;;;;;;6.76;63.87;101677.91;5097482;28;19912;-77
2024/02/04 07:25:17;;;;;;;;;;;;;;;6.76;63.90;101669.00;5095421;28;19919;-76
2024/02/04 07:28:09;;;;;;;;;;;;;;;6.82;63.08;101676.88;5093257;28;19912;-75
2024/02/04 07:31:01;;;;;;;;;;;;;;;6.82;64.08;101676.88;5098003;28;20396;-78
2024/02/04 07:33:53;;;;;;;;;;;;;;;6.88;63.40;101686.63;5093744;28;20379;-76
2024/02/04 07:36:45;;;;;;;;;;;;;;;6.78;64.07;101697.41;5091036;28;19932;-76
2024/02/04 07:39:46;;;;;;;;;;;;;;;6.79;65.15;101695.50;5095507;28;19911;-77
2024/02/04 07:42:41;;;;;;;;;;;;;;;6.94;63.93;101684.75;5094160;28;19911;-77
2024/02/04 07:45:33;;;;;;;;;;;;;;;6.86;64.10;101694.16;5098995;28;19912;-78
2024/02/04 07:48:25;;;;;;;;;;;;;;;6.90;65.24;101685.53;5094674;28;19912;-78
2024/02/04 07:51:16;;;;;;;;;;;;;;;6.89;64.66;101703.66;5098882;28;20307;-78
2024/02/04 07:54:07;;;;;;;;;;;;;;;7.06;65.38;101704.22;5101152;28;19915;-77
2024/02/04 07:56:59;;;;;;;;;;;;;;;7.16;64.84;101698.81;5093466;28;20300;-78
2024/02/04 07:59:51;;;;;;;;;;;;;;;7.22;64.69;101691.53;5104586;28;19916;-77
2024/02/04 08:02:43;;;;;;;;;;;;;;;7.34;64.97;101688.56;5102527;28;19912;-76
2024/02/04 08:05:35;;;;;;;;;;;;;;;7.42;65.01;101705.09;5098632;28;20179;-76
2024/02/04 08:08:27;;;;;;;;;;;;;;;7.78;66.33;101705.91;5097552;28;19912;-76
2024/02/04 08:11:22;;;;;;;;;;;;;;;7.78;67.21;101713.19;5097707;28;19916;-76
2024/02/04 08:14:14;;;;;;;;;;;;;;;8.35;64.38;101705.56;5094609;28;19916;-76
2024/02/04 08:17:07;;;;;;;;;;;;;;;8.39;63.96;101712.03;5091299;28;19919;-75
2024/02/04 08:19:56;;;;;;;;;;;;;;;8.30;64.53;101710.16;5095470;28;19916;-76
2024/02/04 08:22:48;;;;;;;;;;;;;;;8.44;64.40;101698.47;5099284;28;19912;-75
2024/02/04 08:25:38;;;;;;;;;;;;;;;8.61;63.68;101708.97;5096551;28;19912;-78
2024/02/04 08:28:30;;;;;;;;;;;;;;;8.66;63.17;101703.53;5092936;28;19916;-79
2024/02/04 08:31:22;;;;;;;;;;;;;;;8.81;63.31;101714.31;5098146;28;20304;-78
2024/02/04 08:34:12;;;;;;;;;;;;;;;9.39;61.82;101709.91;5098652;28;19912;-79
2024/02/04 08:37:03;;;;;;;;;;;;;;;10.16;59.09;101710.84;5095313;28;19920;-78
2024/02/04 08:40:00;;;;;;;;;;;;;;;10.52;59.01;101729.50;5098754;28;19912;-78
2024/02/04 08:42:53;;;;;;;;;;;;;;;10.72;57.74;101726.53;5100942;28;19912;-79
2024/02/04 08:45:45;;;;;;;;;;;;;;;10.87;58.14;101731.00;5099168;28;19912;-79
2024/02/04 08:48:37;;;;;;;;;;;;;;;11.23;56.08;101739.44;5096911;28;19916;-77
2024/02/04 08:51:29;;;;;;;;;;;;;;;11.15;56.98;101746.38;5096227;28;19912;-77
2024/02/04 08:54:18;;;;;;;;;;;;;;;11.36;56.45;101734.09;5099038;28;19920;-78
2024/02/04 08:57:05;;;;;;;;;;;;;;;11.63;55.09;101727.16;5100154;28;19916;-77
2024/02/04 08:59:57;;;;;;;;;;;;;;;11.68;54.40;101724.34;5103009;28;19916;-78
2024/02/04 09:02:49;;;;;;;;;;;;;;;12.11;53.52;101724.97;5080963;28;19916;-78
2024/02/04 09:05:41;;;;;;;;;;;;;;;12.25;53.14;101723.06;5089162;28;19911;-77
2024/02/04 09:08:33;;;;;;;;;;;;;;;12.62;52.55;101722.06;5095058;28;19916;-76
2024/02/04 09:11:25;;;;;;;;;;;;;;;12.48;52.28;101724.81;5096229;28;19912;-77
2024/02/04 09:14:14;;;;;;;;;;;;;;;12.46;53.42;101710.66;5094757;28;19912;-77
2024/02/04 09:17:09;;;;;;;;;;;;;;;12.66;52.85;101723.06;5117941;28;19916;-77
2024/02/04 09:20:01;;;;;;;;;;;;;;;12.59;53.65;101709.88;5115360;28;19911;-78
2024/02/04 09:22:53;;;;;;;;;;;;;;;12.51;53.41;101710.56;5113125;28;19915;-77
2024/02/04 09:25:45;;;;;;;;;;;;;;;12.91;52.66;101716.28;5116484;28;19915;-76
2024/02/04 09:28:37;;;;;;;;;;;;;;;12.08;55.31;101714.69;5114636;28;19911;-77
2024/02/04 09:31:29;;;;;;;;;;;;;;;12.17;56.00;101723.78;5112836;28;19915;-77
2024/02/04 09:34:18;;;;;;;;;;;;;;;11.84;57.49;101704.72;5091877;28;19916;-82
2024/02/04 09:37:08;;;;;;;;;;;;;;;12.23;56.27;101700.75;5093607;28;19919;-78
2024/02/04 09:40:00;;;;;;;;;;;;;;;12.28;56.13;101684.28;5097580;28;19916;-80
2024/02/04 09:42:51;;;;;;;;;;;;;;;12.18;58.26;101698.13;5095163;28;20372;-80
2024/02/04 09:45:43;;;;;;;;;;;;;;;11.81;59.96;101705.34;5092943;28;19916;-80
2024/02/04 09:48:35;;;;;;;;;;;;;;;12.31;58.18;101717.22;5094881;28;19994;-80
2024/02/04 09:51:27;;;;;;;;;;;;;;;12.92;55.60;101713.25;5094609;28;19912;-80
2024/02/04 09:54:21;;;;;;;;;;;;;;;12.81;55.33;101706.38;5098675;28;19916;-79
2024/02/04 09:57:13;;;;;;;;;;;;;;;13.20;53.83;101703.09;5094976;28;19916;-77
2024/02/04 10:00:09;;;;;;;;;;;;;;;13.71;50.39;101703.47;5093234;28;19911;-78
2024/02/04 10:03:09;;;;;;;;;;;;;;;14.31;47.50;101699.44;5095407;28;19920;-79
2024/02/04 10:05:59;;;;;;;;;;;;;;;14.52;47.05;101706.81;5094124;28;19912;-79
2024/02/04 10:08:48;;;;;;;;;;;;;;;14.49;47.13;101701.94;5092098;28;19912;-79
2024/02/04 10:11:38;;;;;;;;;;;;;;;15.23;46.40;101715.63;5092227;28;19912;-79
2024/02/04 10:14:30;;;;;;;;;;;;;;;16.46;42.42;101694.69;5091613;28;19919;-79
2024/02/04 10:17:22;;;;;;;;;;;;;;;19.94;35.93;101693.44;5095285;28;19916;-78
2024/02/04 10:20:12;;;;;;;;;;;;;;;19.33;36.32;101692.91;5078446;28;20293;-78
2024/02/04 10:23:04;;;;;;;;;;;;;;;19.47;35.89;101693.34;5078214;28;19912;-81
2024/02/04 10:26:00;;;;;;;;;;;;;;;20.31;34.24;101694.03;5096078;28;19912;-80
2024/02/04 10:28:49;;;;;;;;;;;;;;;21.06;32.07;101691.03;5104356;28;19911;-80
2024/02/04 10:31:41;;;;;;;;;;;;;;;22.36;30.77;101683.63;5112453;28;20380;-79
2024/02/04 10:34:33;;;;;;;;;;;;;;;24.43;27.75;101674.66;5115624;28;19912;-80
2024/02/04 10:37:26;;;;;;;;;;;;;;;21.21;32.68;101677.16;5107729;28;19916;-79
2024/02/04 10:40:15;;;;;;;;;;;;;;;22.50;30.58;101679.09;5097049;28;19919;-78
2024/02/04 10:43:07;;;;;;;;;;;;;;;23.17;28.98;101670.94;5088396;28;19912;-81
2024/02/04 10:46:03;;;;;;;;;;;;;;;24.01;28.07;101672.28;5089811;28;19919;-79
2024/02/04 10:48:57;;;;;;;;;;;;;;;23.87;28.36;101662.63;5088948;28;19916;-81
2024/02/04 10:51:49;;;;;;;;;;;;;;;23.57;28.06;101658.38;5092740;28;19916;-79
2024/02/04 10:54:36;;;;;;;;;;;;;;;23.73;28.29;101667.25;5091533;28;20380;-79
2024/02/04 10:57:27;;;;;;;;;;;;;;;25.28;26.50;101664.00;5094688;28;19920;-79
2024/02/04 11:00:20;;;;;;;;;;;;;;;24.79;27.01;101651.41;5092790;28;19912;-78
2024/02/04 11:03:10;;;;;;;;;;;;;;;27.66;23.46;101631.81;5084985;28;19920;-82
2024/02/04 11:06:02;;;;;;;;;;;;;;;28.37;22.44;101632.03;5094595;28;19912;-78
2024/02/04 11:08:56;;;;;;;;;;;;;;;29.69;21.21;101639.63;5091780;28;20372;-80
2024/02/04 11:11:55;;;;;;;;;;;;;;;28.81;22.07;101633.97;5094762;28;19911;-80
2024/02/04 11:14:49;;;;;;;;;;;;;;;27.59;22.93;101635.44;5092671;28;20389;-77
2024/02/04 11:17:55;;;;;;;;;;;;;;;28.19;22.49;101637.00;5098143;28;19919;-80
2024/02/04 11:20:59;;;;;;;;;;;;;;;26.26;24.78;101631.94;5098029;28;19912;-81
2024/02/04 11:23:51;;;;;;;;;;;;;;;25.87;25.35;101637.47;5086767;28;19912;-80
2024/02/04 11:26:42;;;;;;;;;;;;;;;29.05;22.49;101640.50;5098288;28;19934;-79
2024/02/04 11:29:35;;;;;;;;;;;;;;;28.25;22.06;101640.13;5096503;28;19911;-79
2024/02/04 11:32:25;;;;;;;;;;;;;;;26.96;23.89;101631.00;5100026;28;20300;-80
2024/02/04 11:35:22;;;;;;;;;;;;;;;26.92;24.07;101621.03;5089010;28;19916;-80
2024/02/04 11:38:14;;;;;;;;;;;;;;;26.15;25.19;101623.56;5094965;28;19912;-79
2024/02/04 11:41:07;;;;;;;;;;;;;;;27.56;23.57;101613.94;5092326;28;20464;-79
2024/02/04 11:44:04;;;;;;;;;;;;;;;28.35;22.82;101611.25;5089039;28;19912;-79
2024/02/04 11:46:57;;;;;;;;;;;;;;;30.17;21.13;101614.78;5100166;28;20379;-79
2024/02/04 11:49:55;;;;;;;;;;;;;;;31.51;19.24;101601.22;5097299;28;19912;-79
2024/02/04 11:52:47;;;;;;;;;;;;;;;32.22;18.87;101608.72;5089248;28;19920;-77
2024/02/04 11:55:40;;;;;;;;;;;;;;;32.18;18.04;101610.84;5091363;28;20389;-80
2024/02/04 11:58:33;;;;;;;;;;;;;;;32.59;17.83;101615.75;5092296;28;20401;-77
2024/02/04 12:01:26;;;;;;;;;;;;;;;27.43;22.60;101593.22;5092525;28;19913;-80
2024/02/04 12:04:17;;;;;;;;;;;;;;;22.89;29.07;101585.41;5097290;28;19916;-80
2024/02/04 12:07:07;;;;;;;;;;;;;;;20.98;32.28;101571.13;5095451;28;19912;-81
2024/02/04 12:10:00;;;;;;;;;;;;;;;19.53;34.81;101557.56;5098600;28;20218;-81
2024/02/04 12:12:52;;;;;;;;;;;;;;;19.00;36.22;101552.53;5096115;28;19916;-81
2024/02/04 12:15:44;;;;;;;;;;;;;;;18.50;37.60;101553.03;5093658;28;19916;-82
2024/02/04 12:18:36;;;;;;;;;;;;;;;18.25;38.19;101547.56;5094876;28;19912;-82
2024/02/04 12:21:28;;;;;;;;;;;;;;;17.85;39.06;101547.50;5095661;28;19916;-82
2024/02/04 12:24:20;;;;;;;;;;;;;;;17.74;39.50;101554.59;5099453;28;20388;-81
2024/02/04 12:27:09;;;;;;;;;;;;;;;17.65;39.81;101548.41;5095852;28;19912;-82
2024/02/04 12:29:56;;;;;;;;;;;;;;;17.63;40.18;101547.13;5095168;28;19912;-81
2024/02/04 12:32:57;;;;;;;;;;;;;;;17.47;41.29;101534.00;5100414;28;19915;-81
2024/02/04 12:35:51;;;;;;;;;;;;;;;17.51;41.58;101536.91;5095500;28;19916;-81
2024/02/04 12:38:52;;;;;;;;;;;;;;;17.41;41.67;101534.59;5093579;28;19911;-81
2024/02/04 12:41:44;;;;;;;;;;;;;;;17.36;41.85;101529.31;5097471;28;19942;-82
2024/02/04 12:44:36;;;;;;;;;;;;;;;17.46;41.69;101526.94;5094472;28;19911;-83
2024/02/04 12:47:28;;;;;;;;;;;;;;;17.40;41.39;101511.78;5097670;28;19916;-82
2024/02/04 12:50:16;;;;;;;;;;;;;;;16.96;42.61;101513.41;5095953;28;19916;-81
2024/02/04 12:53:06;;;;;;;;;;;;;;;16.99;42.69;101506.41;5093668;28;20455;-81
2024/02/04 12:56:01;;;;;;;;;;;;;;;16.98;42.36;101511.09;5096907;28;19919;-81
2024/02/04 12:58:50;;;;;;;;;;;;;;;17.02;42.26;101511.22;5093656;28;19912;-81
2024/02/04 13:01:42;;;;;;;;;;;;;;;16.95;42.53;101503.56;5093123;28;19912;-81
2024/02/04 13:04:48;;;;;;;;;;;;;;;16.92;42.51;101509.72;5097037;28;19916;-82
2024/02/04 13:07:40;;;;;;;;;;;;;;;17.05;42.55;101496.81;5093483;28;20099;-81
2024/02/04 13:10:33;;;;;;;;;;;;;;;17.00;42.60;101503.34;5097369;28;20293;-81
2024/02/04 13:13:26;;;;;;;;;;;;;;;17.04;42.45;101496.03;5095169;28;20297;-81
2024/02/04 13:16:19;;;;;;;;;;;;;;;17.04;42.39;101492.47;5098128;28;19920;-81
2024/02/04 13:19:11;;;;;;;;;;;;;;;17.00;42.40;101486.84;5096925;28;19916;-81
2024/02/04 13:22:03;;;;;;;;;;;;;;;16.93;42.16;101481.09;5094495;28;19911;-81
2024/02/04 13:24:50;;;;;;;;;;;;;;;16.83;42.54;101476.03;5097757;28;19912;-80
2024/02/04 13:27:42;;;;;;;;;;;;;;;16.65;43.11;101482.84;5095555;28;19911;-82
2024/02/04 13:30:31;;;;;;;;;;;;;;;16.56;43.72;101476.56;5093636;28;19912;-81
2024/02/04 13:33:23;;;;;;;;;;;;;;;16.46;43.89;101472.31;5097463;28;19912;-80
2024/02/04 13:36:13;;;;;;;;;;;;;;;16.56;43.52;101477.38;5094543;28;20376;-82
2024/02/04 13:39:02;;;;;;;;;;;;;;;16.57;43.82;101462.50;5091511;28;19916;-81
2024/02/04 13:41:54;;;;;;;;;;;;;;;16.52;44.36;101470.97;5096480;28;19912;-81
2024/02/04 13:44:46;;;;;;;;;;;;;;;16.57;44.26;101456.22;5094167;28;19916;-80
2024/02/04 13:47:38;;;;;;;;;;;;;;;16.60;44.33;101466.56;5096131;28;19938;-82
2024/02/04 13:50:25;;;;;;;;;;;;;;;16.49;44.81;101471.66;5095439;28;19917;-80
2024/02/04 13:53:14;;;;;;;;;;;;;;;16.45;45.65;101470.72;5093506;28;20372;-80
2024/02/04 13:56:06;;;;;;;;;;;;;;;16.44;45.64;101471.03;5097137;28;19915;-79
2024/02/04 13:58:58;;;;;;;;;;;;;;;16.29;46.14;101464.22;5092393;28;19911;-82
2024/02/04 14:01:50;;;;;;;;;;;;;;;16.39;46.25;101463.81;5093038;28;19916;-82
2024/02/04 14:04:37;;;;;;;;;;;;;;;16.31;46.52;101472.09;5096249;28;20373;-81
2024/02/04 14:07:27;;;;;;;;;;;;;;;16.35;46.56;101468.38;5094286;28;19912;-80
2024/02/04 14:10:19;;;;;;;;;;;;;;;16.24;47.08;101473.47;5092400;28;19912;-81
2024/02/04 14:13:11;;;;;;;;;;;;;;;16.16;47.53;101468.84;5095783;28;19916;-81
2024/02/04 14:16:03;;;;;;;;;;;;;;;16.14;47.99;101454.66;5093425;28;19916;-80
2024/02/04 14:18:52;;;;;;;;;;;;;;;16.08;48.16;101466.97;5091677;28;19916;-81
2024/02/04 14:21:45;;;;;;;;;;;;;;;16.12;48.25;101467.91;5095296;28;19912;-81
2024/02/04 14:24:34;;;;;;;;;;;;;;;16.09;48.64;101468.59;5092913;28;19912;-80
2024/02/04 14:27:27;;;;;;;;;;;;;;;15.99;49.04;101463.50;5096136;28;19911;-80
2024/02/04 14:30:16;;;;;;;;;;;;;;;16.06;48.81;101466.47;5094634;28;19920;-80
2024/02/04 14:33:08;;;;;;;;;;;;;;;15.97;49.06;101471.22;5092139;28;19912;-81
2024/02/04 14:36:00;;;;;;;;;;;;;;;15.93;49.25;101456.59;5095475;28;20365;-81
2024/02/04 14:38:52;;;;;;;;;;;;;;;15.88;49.70;101456.78;5092323;28;19911;-81
2024/02/04 14:41:44;;;;;;;;;;;;;;;15.93;50.03;101453.84;5091593;28;19912;-81
2024/02/04 14:44:36;;;;;;;;;;;;;;;15.81;50.38;101451.00;5095196;28;19916;-81
2024/02/04 14:47:28;;;;;;;;;;;;;;;15.90;50.28;101454.50;5092941;28;19911;-81
2024/02/04 14:50:20;;;;;;;;;;;;;;;15.92;50.10;101446.75;5098174;28;19912;-81